Impacts TAF Board INFO
FOR SITUATIONAL AWARENESS. NOT TO BE USED FOR FLIGHT PLANNING PURPOSES.
IDs:

KSAN - San Diego Intl Arpt, CA, US

Issued at 0904 UTC 16 Dec 2017
Updated at 1044 UTC 16 Dec 2017
Potential Impact None Slight Moderate High
Time<<17/11Z 17/12Z 17/13Z 17/14Z 17/15Z 17/16Z 17/17Z 17/18Z 17/19Z 17/20Z 17/21Z 17/22Z 17/23Z
Type PRVL
VIS >6
CIG --
Cover SKC
FltCat VFR
WX --
WDir VRB
WSpd 4
WGst --

Raw TAF
KSAN 160904Z 1609/1712 VRB04KT P6SM BKN250
  FM161400 VRB04KT P6SM BKN012
  FM161700 19007KT P6SM VCSH BKN020
  FM162300 17005KT P6SM BKN020
  FM170500 VRB04KT P6SM SKC


METAR Board
Radar Display
Forecast Discussion

FOR SITUATIONAL AWARENESS. NOT TO BE USED FOR FLIGHT PLANNING PURPOSES.